sensor_id;sensor_type;location;lat;lon;timestamp;pressure;altitude;pressure_sealevel;temperature;humidity
49973;BME280;35865;49.798;10.968;2022-08-18T00:02:07;97641.88;;;21.54;67.16
49973;BME280;35865;49.798;10.968;2022-08-18T00:04:34;97646.38;;;21.50;67.40
49973;BME280;35865;49.798;10.968;2022-08-18T00:07:03;97646.31;;;21.37;67.71
49973;BME280;35865;49.798;10.968;2022-08-18T00:09:29;97650.03;;;21.33;67.84
49973;BME280;35865;49.798;10.968;2022-08-18T00:11:56;97647.50;;;21.27;68.20
49973;BME280;35865;49.798;10.968;2022-08-18T00:14:22;97644.69;;;21.24;68.25
49973;BME280;35865;49.798;10.968;2022-08-18T00:16:51;97635.38;;;21.21;68.39
49973;BME280;35865;49.798;10.968;2022-08-18T00:19:19;97638.84;;;21.22;68.11
49973;BME280;35865;49.798;10.968;2022-08-18T00:21:46;97633.69;;;21.29;68.00
49973;BME280;35865;49.798;10.968;2022-08-18T00:24:13;97625.94;;;21.27;67.74
49973;BME280;35865;49.798;10.968;2022-08-18T00:26:39;97622.72;;;21.34;67.88
49973;BME280;35865;49.798;10.968;2022-08-18T00:29:05;97626.81;;;21.53;67.07
49973;BME280;35865;49.798;10.968;2022-08-18T00:31:32;97627.97;;;21.52;67.15
49973;BME280;35865;49.798;10.968;2022-08-18T00:33:59;97621.88;;;21.55;66.66
49973;BME280;35865;49.798;10.968;2022-08-18T00:36:27;97625.38;;;21.55;67.18
49973;BME280;35865;49.798;10.968;2022-08-18T00:38:55;97624.91;;;21.53;67.06
49973;BME280;35865;49.798;10.968;2022-08-18T00:41:22;97623.81;;;21.54;67.04
49973;BME280;35865;49.798;10.968;2022-08-18T00:43:50;97625.25;;;21.52;67.02
49973;BME280;35865;49.798;10.968;2022-08-18T00:46:21;97624.34;;;21.47;67.26
49973;BME280;35865;49.798;10.968;2022-08-18T00:48:48;97630.84;;;21.46;67.70
49973;BME280;35865;49.798;10.968;2022-08-18T00:51:19;97618.56;;;21.37;67.79
49973;BME280;35865;49.798;10.968;2022-08-18T00:53:51;97620.72;;;21.43;67.61
49973;BME280;35865;49.798;10.968;2022-08-18T00:56:21;97625.66;;;21.41;68.07
49973;BME280;35865;49.798;10.968;2022-08-18T00:58:54;97631.06;;;21.41;67.93
49973;BME280;35865;49.798;10.968;2022-08-18T01:01:23;97635.66;;;21.41;68.05
49973;BME280;35865;49.798;10.968;2022-08-18T01:03:55;97659.88;;;21.50;68.30
49973;BME280;35865;49.798;10.968;2022-08-18T01:06:27;97685.53;;;21.56;67.83
49973;BME280;35865;49.798;10.968;2022-08-18T01:08:57;97702.63;;;21.60;67.34
49973;BME280;35865;49.798;10.968;2022-08-18T01:11:24;97707.50;;;21.88;66.15
49973;BME280;35865;49.798;10.968;2022-08-18T01:13:51;97704.63;;;22.05;65.32
49973;BME280;35865;49.798;10.968;2022-08-18T01:16:19;97693.63;;;22.10;64.65
49973;BME280;35865;49.798;10.968;2022-08-18T01:19:05;97702.28;;;22.16;64.30
49973;BME280;35865;49.798;10.968;2022-08-18T01:21:51;97703.06;;;22.17;64.13
49973;BME280;35865;49.798;10.968;2022-08-18T01:24:24;97696.22;;;22.19;63.64
49973;BME280;35865;49.798;10.968;2022-08-18T01:27:14;97705.38;;;22.39;62.78
49973;BME280;35865;49.798;10.968;2022-08-18T01:29:42;97702.41;;;22.32;63.21
49973;BME280;35865;49.798;10.968;2022-08-18T01:32:09;97709.63;;;22.28;63.42
49973;BME280;35865;49.798;10.968;2022-08-18T01:34:36;97706.91;;;22.28;63.45
49973;BME280;35865;49.798;10.968;2022-08-18T01:37:03;97703.78;;;22.38;62.66
49973;BME280;35865;49.798;10.968;2022-08-18T01:39:32;97706.03;;;22.48;61.67
49973;BME280;35865;49.798;10.968;2022-08-18T01:41:59;97707.97;;;22.60;61.06
49973;BME280;35865;49.798;10.968;2022-08-18T01:44:28;97701.13;;;22.75;60.57
49973;BME280;35865;49.798;10.968;2022-08-18T01:46:55;97693.00;;;22.88;59.92
49973;BME280;35865;49.798;10.968;2022-08-18T01:49:21;97707.88;;;22.94;59.81
49973;BME280;35865;49.798;10.968;2022-08-18T01:51:48;97711.59;;;22.89;59.85
49973;BME280;35865;49.798;10.968;2022-08-18T01:54:14;97725.59;;;22.91;60.08
49973;BME280;35865;49.798;10.968;2022-08-18T01:56:42;97726.81;;;22.94;60.64
49973;BME280;35865;49.798;10.968;2022-08-18T01:59:10;97725.34;;;22.84;61.72
49973;BME280;35865;49.798;10.968;2022-08-18T02:01:40;97724.00;;;22.78;62.53
49973;BME280;35865;49.798;10.968;2022-08-18T02:04:08;97719.59;;;22.73;62.80
49973;BME280;35865;49.798;10.968;2022-08-18T02:06:37;97718.03;;;22.72;62.46
49973;BME280;35865;49.798;10.968;2022-08-18T02:09:04;97722.97;;;22.70;62.50
49973;BME280;35865;49.798;10.968;2022-08-18T02:11:30;97721.97;;;22.75;62.59
49973;BME280;35865;49.798;10.968;2022-08-18T02:13:58;97715.34;;;22.72;62.84
49973;BME280;35865;49.798;10.968;2022-08-18T02:16:25;97710.84;;;22.76;62.34
49973;BME280;35865;49.798;10.968;2022-08-18T02:18:51;97715.56;;;22.79;62.45
49973;BME280;35865;49.798;10.968;2022-08-18T02:21:19;97718.59;;;22.78;62.49
49973;BME280;35865;49.798;10.968;2022-08-18T02:23:47;97723.31;;;22.81;62.97
49973;BME280;35865;49.798;10.968;2022-08-18T02:26:15;97723.53;;;22.76;63.14
49973;BME280;35865;49.798;10.968;2022-08-18T02:28:42;97725.25;;;22.68;63.33
49973;BME280;35865;49.798;10.968;2022-08-18T02:31:12;97723.63;;;22.67;63.55
49973;BME280;35865;49.798;10.968;2022-08-18T02:33:39;97723.50;;;22.63;64.13
49973;BME280;35865;49.798;10.968;2022-08-18T02:36:07;97740.75;;;22.59;64.86
49973;BME280;35865;49.798;10.968;2022-08-18T02:38:34;97734.66;;;22.62;65.48
49973;BME280;35865;49.798;10.968;2022-08-18T02:41:03;97736.03;;;22.56;65.89
49973;BME280;35865;49.798;10.968;2022-08-18T02:43:32;97737.34;;;22.49;66.36
49973;BME280;35865;49.798;10.968;2022-08-18T02:45:58;97737.34;;;22.49;66.76
49973;BME280;35865;49.798;10.968;2022-08-18T02:48:26;97747.72;;;22.47;67.03
49973;BME280;35865;49.798;10.968;2022-08-18T02:50:59;97743.66;;;22.54;67.13
49973;BME280;35865;49.798;10.968;2022-08-18T02:53:25;97746.13;;;22.46;67.12
49973;BME280;35865;49.798;10.968;2022-08-18T02:55:52;97737.56;;;22.44;67.00
49973;BME280;35865;49.798;10.968;2022-08-18T02:58:19;97719.53;;;22.36;67.25
49973;BME280;35865;49.798;10.968;2022-08-18T03:00:46;97723.13;;;22.28;68.10
49973;BME280;35865;49.798;10.968;2022-08-18T03:03:13;97706.56;;;22.29;68.49
49973;BME280;35865;49.798;10.968;2022-08-18T03:05:40;97706.47;;;22.26;68.83
49973;BME280;35865;49.798;10.968;2022-08-18T03:08:07;97694.22;;;22.28;69.27
49973;BME280;35865;49.798;10.968;2022-08-18T03:10:34;97691.38;;;22.25;69.74
49973;BME280;35865;49.798;10.968;2022-08-18T03:13:01;97690.25;;;22.26;70.04
49973;BME280;35865;49.798;10.968;2022-08-18T03:15:28;97699.34;;;22.21;70.46
49973;BME280;35865;49.798;10.968;2022-08-18T03:17:54;97707.94;;;22.23;70.74
49973;BME280;35865;49.798;10.968;2022-08-18T03:20:22;97717.03;;;22.19;71.31
49973;BME280;35865;49.798;10.968;2022-08-18T03:22:50;97727.72;;;22.15;71.29
49973;BME280;35865;49.798;10.968;2022-08-18T03:25:16;97733.00;;;22.11;72.08
49973;BME280;35865;49.798;10.968;2022-08-18T03:27:43;97723.53;;;22.05;72.74
49973;BME280;35865;49.798;10.968;2022-08-18T03:30:09;97730.38;;;22.03;73.60
49973;BME280;35865;49.798;10.968;2022-08-18T03:32:36;97725.28;;;21.89;74.53
49973;BME280;35865;49.798;10.968;2022-08-18T03:35:03;97715.34;;;21.80;75.83
49973;BME280;35865;49.798;10.968;2022-08-18T03:37:29;97700.63;;;21.69;76.90
49973;BME280;35865;49.798;10.968;2022-08-18T03:39:58;97694.88;;;21.58;77.97
49973;BME280;35865;49.798;10.968;2022-08-18T03:42:24;97690.66;;;21.48;80.36
49973;BME280;35865;49.798;10.968;2022-08-18T03:44:51;97696.78;;;21.37;82.40
49973;BME280;35865;49.798;10.968;2022-08-18T03:47:17;97696.91;;;21.19;84.53
49973;BME280;35865;49.798;10.968;2022-08-18T03:49:43;97708.91;;;21.01;86.24
49973;BME280;35865;49.798;10.968;2022-08-18T03:52:10;97719.59;;;20.97;90.65
49973;BME280;35865;49.798;10.968;2022-08-18T03:54:36;97721.19;;;20.89;93.02
49973;BME280;35865;49.798;10.968;2022-08-18T03:57:06;97705.72;;;20.77;94.96
49973;BME280;35865;49.798;10.968;2022-08-18T03:59:33;97694.84;;;20.65;96.53
49973;BME280;35865;49.798;10.968;2022-08-18T04:02:02;97684.09;;;20.56;96.67
49973;BME280;35865;49.798;10.968;2022-08-18T04:04:29;97666.44;;;20.38;100.00
49973;BME280;35865;49.798;10.968;2022-08-18T04:06:58;97652.41;;;20.15;100.00
49973;BME280;35865;49.798;10.968;2022-08-18T04:09:26;97640.44;;;19.94;100.00
49973;BME280;35865;49.798;10.968;2022-08-18T04:11:53;97639.78;;;19.89;100.00
49973;BME280;35865;49.798;10.968;2022-08-18T04:14:23;97633.97;;;19.78;100.00
49973;BME280;35865;49.798;10.968;2022-08-18T04:16:50;97626.22;;;19.76;100.00
49973;BME280;35865;49.798;10.968;2022-08-18T04:19:17;97630.16;;;19.70;100.00
49973;BME280;35865;49.798;10.968;2022-08-18T04:21:43;97634.28;;;19.68;100.00
49973;BME280;35865;49.798;10.968;2022-08-18T04:24:12;97636.03;;;19.64;100.00
49973;BME280;35865;49.798;10.968;2022-08-18T04:26:40;97638.44;;;19.56;100.00
49973;BME280;35865;49.798;10.968;2022-08-18T04:29:09;97634.31;;;19.59;100.00
49973;BME280;35865;49.798;10.968;2022-08-18T04:31:37;97643.97;;;19.60;100.00
49973;BME280;35865;49.798;10.968;2022-08-18T04:34:04;97646.97;;;19.58;100.00
49973;BME280;35865;49.798;10.968;2022-08-18T04:36:32;97642.69;;;19.57;100.00
49973;BME280;35865;49.798;10.968;2022-08-18T04:38:59;97642.38;;;19.59;100.00
49973;BME280;35865;49.798;10.968;2022-08-18T04:41:26;97638.09;;;19.58;100.00
49973;BME280;35865;49.798;10.968;2022-08-18T04:43:53;97643.81;;;19.56;100.00
49973;BME280;35865;49.798;10.968;2022-08-18T04:46:21;97653.91;;;19.59;100.00
49973;BME280;35865;49.798;10.968;2022-08-18T04:48:49;97664.19;;;19.66;100.00
49973;BME280;35865;49.798;10.968;2022-08-18T04:51:18;97668.97;;;19.69;100.00
49973;BME280;35865;49.798;10.968;2022-08-18T04:53:45;97680.03;;;19.76;100.00
49973;BME280;35865;49.798;10.968;2022-08-18T04:56:20;97691.56;;;19.77;100.00
49973;BME280;35865;49.798;10.968;2022-08-18T04:58:51;97711.34;;;19.81;100.00
49973;BME280;35865;49.798;10.968;2022-08-18T05:01:19;97707.88;;;19.81;100.00
49973;BME280;35865;49.798;10.968;2022-08-18T05:03:46;97688.41;;;19.75;100.00
49973;BME280;35865;49.798;10.968;2022-08-18T05:06:14;97682.56;;;19.73;100.00
49973;BME280;35865;49.798;10.968;2022-08-18T05:08:40;97686.22;;;19.68;100.00
49973;BME280;35865;49.798;10.968;2022-08-18T05:11:07;97678.28;;;19.72;100.00
49973;BME280;35865;49.798;10.968;2022-08-18T05:13:35;97682.56;;;19.64;100.00
49973;BME280;35865;49.798;10.968;2022-08-18T05:16:01;97679.25;;;19.67;100.00
49973;BME280;35865;49.798;10.968;2022-08-18T05:18:29;97682.22;;;19.74;100.00
49973;BME280;35865;49.798;10.968;2022-08-18T05:20:56;97684.63;;;19.67;100.00
49973;BME280;35865;49.798;10.968;2022-08-18T05:23:26;97694.75;;;19.61;100.00
49973;BME280;35865;49.798;10.968;2022-08-18T05:25:56;97695.84;;;19.60;100.00
49973;BME280;35865;49.798;10.968;2022-08-18T05:28:23;97690.00;;;19.67;100.00
49973;BME280;35865;49.798;10.968;2022-08-18T05:30:50;97708.53;;;19.77;100.00
49973;BME280;35865;49.798;10.968;2022-08-18T05:33:16;97716.41;;;19.83;100.00
49973;BME280;35865;49.798;10.968;2022-08-18T05:35:46;97736.84;;;19.84;100.00
49973;BME280;35865;49.798;10.968;2022-08-18T05:38:27;97750.63;;;19.82;100.00
49973;BME280;35865;49.798;10.968;2022-08-18T05:41:06;97763.75;;;19.84;100.00
49973;BME280;35865;49.798;10.968;2022-08-18T05:43:34;97762.03;;;19.79;100.00
49973;BME280;35865;49.798;10.968;2022-08-18T05:46:04;97768.66;;;19.73;100.00
49973;BME280;35865;49.798;10.968;2022-08-18T05:48:31;97748.56;;;19.70;100.00
49973;BME280;35865;49.798;10.968;2022-08-18T05:51:01;97738.91;;;19.69;100.00
49973;BME280;35865;49.798;10.968;2022-08-18T05:53:31;97741.28;;;19.62;100.00
49973;BME280;35865;49.798;10.968;2022-08-18T05:56:12;97725.78;;;19.59;100.00
49973;BME280;35865;49.798;10.968;2022-08-18T05:58:58;97716.75;;;19.55;100.00
49973;BME280;35865;49.798;10.968;2022-08-18T06:01:28;97708.69;;;19.46;100.00
49973;BME280;35865;49.798;10.968;2022-08-18T06:04:00;97717.88;;;19.45;100.00
49973;BME280;35865;49.798;10.968;2022-08-18T06:06:29;97722.47;;;19.44;100.00
49973;BME280;35865;49.798;10.968;2022-08-18T06:09:02;97724.84;;;19.46;100.00
49973;BME280;35865;49.798;10.968;2022-08-18T06:11:30;97719.13;;;19.39;100.00
49973;BME280;35865;49.798;10.968;2022-08-18T06:13:57;97721.00;;;19.47;100.00
49973;BME280;35865;49.798;10.968;2022-08-18T06:16:33;97730.38;;;19.58;100.00
49973;BME280;35865;49.798;10.968;2022-08-18T06:19:16;97733.84;;;19.76;100.00
49973;BME280;35865;49.798;10.968;2022-08-18T06:21:52;97737.94;;;19.83;100.00
49973;BME280;35865;49.798;10.968;2022-08-18T06:24:28;97740.34;;;19.93;100.00
49973;BME280;35865;49.798;10.968;2022-08-18T06:27:00;97742.69;;;20.03;100.00
49973;BME280;35865;49.798;10.968;2022-08-18T06:29:40;97738.34;;;20.37;100.00
49973;BME280;35865;49.798;10.968;2022-08-18T06:32:19;97738.19;;;20.42;100.00
49973;BME280;35865;49.798;10.968;2022-08-18T06:35:02;97749.00;;;20.72;100.00
49973;BME280;35865;49.798;10.968;2022-08-18T06:37:37;97765.78;;;20.78;100.00
49973;BME280;35865;49.798;10.968;2022-08-18T06:40:31;97762.06;;;21.00;100.00
49973;BME280;35865;49.798;10.968;2022-08-18T06:42:58;97770.47;;;21.28;100.00
49973;BME280;35865;49.798;10.968;2022-08-18T06:45:30;97780.03;;;21.47;100.00
49973;BME280;35865;49.798;10.968;2022-08-18T06:48:04;97771.72;;;21.82;100.00
49973;BME280;35865;49.798;10.968;2022-08-18T06:50:37;97778.66;;;22.04;100.00
49973;BME280;35865;49.798;10.968;2022-08-18T06:53:07;97789.75;;;22.24;100.00
49973;BME280;35865;49.798;10.968;2022-08-18T06:55:37;97795.16;;;22.24;100.00
49973;BME280;35865;49.798;10.968;2022-08-18T06:58:20;97796.06;;;22.61;100.00
49973;BME280;35865;49.798;10.968;2022-08-18T07:00:55;97799.38;;;22.79;100.00
49973;BME280;35865;49.798;10.968;2022-08-18T07:03:39;97780.94;;;22.60;100.00
49973;BME280;35865;49.798;10.968;2022-08-18T07:06:09;97786.81;;;22.62;100.00
49973;BME280;35865;49.798;10.968;2022-08-18T07:08:38;97776.81;;;23.25;99.59
49973;BME280;35865;49.798;10.968;2022-08-18T07:11:17;97770.41;;;23.82;95.57
49973;BME280;35865;49.798;10.968;2022-08-18T07:13:47;97773.47;;;24.85;92.21
49973;BME280;35865;49.798;10.968;2022-08-18T07:16:16;97769.22;;;24.68;87.60
49973;BME280;35865;49.798;10.968;2022-08-18T07:18:43;97773.75;;;25.12;85.65
49973;BME280;35865;49.798;10.968;2022-08-18T07:21:23;97761.19;;;25.40;83.16
49973;BME280;35865;49.798;10.968;2022-08-18T07:23:58;97761.81;;;25.52;81.88
49973;BME280;35865;49.798;10.968;2022-08-18T07:26:27;97779.28;;;26.30;79.35
49973;BME280;35865;49.798;10.968;2022-08-18T07:28:54;97770.06;;;26.58;75.69
49973;BME280;35865;49.798;10.968;2022-08-18T07:31:34;97758.44;;;25.75;75.65
49973;BME280;35865;49.798;10.968;2022-08-18T07:34:07;97761.91;;;25.76;76.62
49973;BME280;35865;49.798;10.968;2022-08-18T07:36:40;97752.00;;;26.03;74.75
49973;BME280;35865;49.798;10.968;2022-08-18T07:39:13;97749.13;;;26.15;75.02
49973;BME280;35865;49.798;10.968;2022-08-18T07:41:49;97747.63;;;26.41;73.76
49973;BME280;35865;49.798;10.968;2022-08-18T07:44:22;97739.22;;;26.50;73.63
49973;BME280;35865;49.798;10.968;2022-08-18T07:46:55;97726.09;;;26.32;72.93
49973;BME280;35865;49.798;10.968;2022-08-18T07:49:27;97731.84;;;27.50;71.48
49973;BME280;35865;49.798;10.968;2022-08-18T07:52:01;97720.38;;;28.43;65.78
49973;BME280;35865;49.798;10.968;2022-08-18T07:54:40;97719.28;;;28.10;65.71
49973;BME280;35865;49.798;10.968;2022-08-18T07:57:18;97725.28;;;28.27;64.86
49973;BME280;35865;49.798;10.968;2022-08-18T07:59:54;97739.56;;;28.13;64.86
49973;BME280;35865;49.798;10.968;2022-08-18T08:02:33;97748.06;;;27.74;64.50
49973;BME280;35865;49.798;10.968;2022-08-18T08:05:08;97758.25;;;27.46;66.13
49973;BME280;35865;49.798;10.968;2022-08-18T08:07:43;97772.47;;;27.09;66.59
49973;BME280;35865;49.798;10.968;2022-08-18T08:10:30;97779.13;;;26.89;68.77
49973;BME280;35865;49.798;10.968;2022-08-18T08:13:10;97771.78;;;26.66;68.14
49973;BME280;35865;49.798;10.968;2022-08-18T08:15:47;97767.19;;;26.70;68.22
49973;BME280;35865;49.798;10.968;2022-08-18T08:18:23;97750.09;;;27.23;66.09
49973;BME280;35865;49.798;10.968;2022-08-18T08:20:53;97766.72;;;27.41;65.81
49973;BME280;35865;49.798;10.968;2022-08-18T08:23:27;97763.19;;;27.41;65.29
49973;BME280;35865;49.798;10.968;2022-08-18T08:26:19;97767.88;;;27.13;65.66
49973;BME280;35865;49.798;10.968;2022-08-18T08:28:57;97765.97;;;27.17;63.89
49973;BME280;35865;49.798;10.968;2022-08-18T08:31:33;97769.63;;;27.02;65.64
49973;BME280;35865;49.798;10.968;2022-08-18T08:34:08;97777.09;;;26.82;66.96
49973;BME280;35865;49.798;10.968;2022-08-18T08:36:39;97778.91;;;26.74;67.04
49973;BME280;35865;49.798;10.968;2022-08-18T08:39:10;97764.53;;;27.00;66.66
49973;BME280;35865;49.798;10.968;2022-08-18T08:41:41;97759.25;;;27.11;67.25
49973;BME280;35865;49.798;10.968;2022-08-18T08:44:14;97757.94;;;27.28;64.96
49973;BME280;35865;49.798;10.968;2022-08-18T08:46:46;97749.94;;;27.69;63.99
49973;BME280;35865;49.798;10.968;2022-08-18T08:49:24;97738.91;;;27.93;62.59
49973;BME280;35865;49.798;10.968;2022-08-18T08:51:55;97730.94;;;28.48;61.89
49973;BME280;35865;49.798;10.968;2022-08-18T08:54:26;97725.59;;;28.63;59.54
49973;BME280;35865;49.798;10.968;2022-08-18T08:56:58;97736.72;;;28.88;59.02
49973;BME280;35865;49.798;10.968;2022-08-18T08:59:27;97744.88;;;28.84;59.01
49973;BME280;35865;49.798;10.968;2022-08-18T09:02:02;97734.06;;;28.99;57.84
49973;BME280;35865;49.798;10.968;2022-08-18T09:04:40;97723.53;;;28.49;59.02
49973;BME280;35865;49.798;10.968;2022-08-18T09:07:24;97727.94;;;29.16;58.15
49973;BME280;35865;49.798;10.968;2022-08-18T09:10:11;97713.56;;;29.27;57.36
49973;BME280;35865;49.798;10.968;2022-08-18T09:12:58;97716.91;;;29.68;57.59
49973;BME280;35865;49.798;10.968;2022-08-18T09:15:43;97720.06;;;29.88;56.88
49973;BME280;35865;49.798;10.968;2022-08-18T09:18:41;97709.25;;;30.61;54.28
49973;BME280;35865;49.798;10.968;2022-08-18T09:21:20;97699.47;;;30.49;54.57
49973;BME280;35865;49.798;10.968;2022-08-18T09:23:56;97697.09;;;30.94;52.85
49973;BME280;35865;49.798;10.968;2022-08-18T09:26:40;97695.81;;;31.42;51.72
49973;BME280;35865;49.798;10.968;2022-08-18T09:29:15;97694.69;;;31.32;52.07
49973;BME280;35865;49.798;10.968;2022-08-18T09:31:45;97695.66;;;31.89;50.07
49973;BME280;35865;49.798;10.968;2022-08-18T09:34:33;97693.75;;;31.68;49.07
49973;BME280;35865;49.798;10.968;2022-08-18T09:37:12;97688.06;;;32.11;48.68
49973;BME280;35865;49.798;10.968;2022-08-18T09:39:42;97687.72;;;33.00;45.67
49973;BME280;35865;49.798;10.968;2022-08-18T09:42:32;97673.16;;;33.06;45.75
49973;BME280;35865;49.798;10.968;2022-08-18T09:45:08;97672.41;;;33.02;44.58
49973;BME280;35865;49.798;10.968;2022-08-18T09:48:20;97668.97;;;32.91;44.84
49973;BME280;35865;49.798;10.968;2022-08-18T09:50:57;97664.97;;;33.34;44.35
49973;BME280;35865;49.798;10.968;2022-08-18T09:59:54;97660.63;;;33.05;44.81
49973;BME280;35865;49.798;10.968;2022-08-18T10:05:33;97649.63;;;32.64;44.65
49973;BME280;35865;49.798;10.968;2022-08-18T10:08:28;97649.63;;;32.64;45.23
49973;BME280;35865;49.798;10.968;2022-08-18T10:11:02;97636.78;;;32.53;44.85
49973;BME280;35865;49.798;10.968;2022-08-18T10:13:35;97646.28;;;33.83;42.66
49973;BME280;35865;49.798;10.968;2022-08-18T10:16:13;97641.56;;;33.84;42.41
49973;BME280;35865;49.798;10.968;2022-08-18T10:18:52;97645.78;;;33.65;42.60
49973;BME280;35865;49.798;10.968;2022-08-18T10:21:25;97644.44;;;32.73;43.99
49973;BME280;35865;49.798;10.968;2022-08-18T10:23:56;97664.25;;;32.53;44.45
49973;BME280;35865;49.798;10.968;2022-08-18T10:29:51;97656.94;;;31.69;46.72
49973;BME280;35865;49.798;10.968;2022-08-18T10:32:24;97664.78;;;31.67;46.22
49973;BME280;35865;49.798;10.968;2022-08-18T10:35:01;97662.03;;;31.67;46.11
49973;BME280;35865;49.798;10.968;2022-08-18T10:37:33;97664.28;;;30.76;47.89
49973;BME280;35865;49.798;10.968;2022-08-18T10:40:04;97678.75;;;30.84;48.82
49973;BME280;35865;49.798;10.968;2022-08-18T10:42:40;97687.56;;;31.56;47.66
49973;BME280;35865;49.798;10.968;2022-08-18T10:45:11;97694.31;;;32.15;46.31
49973;BME280;35865;49.798;10.968;2022-08-18T10:47:39;97686.78;;;31.52;47.29
49973;BME280;35865;49.798;10.968;2022-08-18T10:50:18;97684.28;;;31.83;46.61
49973;BME280;35865;49.798;10.968;2022-08-18T10:53:02;97687.16;;;31.54;46.54
49973;BME280;35865;49.798;10.968;2022-08-18T10:55:47;97696.19;;;31.51;47.35
49973;BME280;35865;49.798;10.968;2022-08-18T10:58:23;97677.25;;;31.79;45.92
49973;BME280;35865;49.798;10.968;2022-08-18T11:04:05;97654.53;;;31.85;45.55
49973;BME280;35865;49.798;10.968;2022-08-18T11:06:39;97653.47;;;31.61;46.64
49973;BME280;35865;49.798;10.968;2022-08-18T11:09:09;97650.97;;;31.92;45.77
49973;BME280;35865;49.798;10.968;2022-08-18T11:11:38;97655.50;;;32.13;44.78
49973;BME280;35865;49.798;10.968;2022-08-18T11:14:21;97656.81;;;31.98;46.15
49973;BME280;35865;49.798;10.968;2022-08-18T11:16:57;97664.56;;;32.06;45.58
49973;BME280;35865;49.798;10.968;2022-08-18T11:19:25;97665.38;;;32.03;45.93
49973;BME280;35865;49.798;10.968;2022-08-18T11:21:52;97650.06;;;32.58;44.95
49973;BME280;35865;49.798;10.968;2022-08-18T11:24:22;97642.59;;;32.10;44.86
49973;BME280;35865;49.798;10.968;2022-08-18T11:26:52;97643.53;;;32.83;44.13
49973;BME280;35865;49.798;10.968;2022-08-18T11:29:40;97628.72;;;31.72;45.29
49973;BME280;35865;49.798;10.968;2022-08-18T11:32:15;97635.59;;;31.24;47.14
49973;BME280;35865;49.798;10.968;2022-08-18T11:34:45;97615.03;;;30.76;47.04
49973;BME280;35865;49.798;10.968;2022-08-18T11:37:21;97604.91;;;30.33;47.79
49973;BME280;35865;49.798;10.968;2022-08-18T11:39:54;97602.19;;;30.37;48.47
49973;BME280;35865;49.798;10.968;2022-08-18T11:42:26;97596.69;;;30.30;48.72
49973;BME280;35865;49.798;10.968;2022-08-18T11:44:54;97590.81;;;29.77;50.28
49973;BME280;35865;49.798;10.968;2022-08-18T11:47:27;97581.47;;;30.14;50.14
49973;BME280;35865;49.798;10.968;2022-08-18T11:49:56;97576.66;;;30.83;47.91
49973;BME280;35865;49.798;10.968;2022-08-18T11:52:26;97576.50;;;31.23;47.18
49973;BME280;35865;49.798;10.968;2022-08-18T11:55:00;97586.03;;;31.74;45.95
49973;BME280;35865;49.798;10.968;2022-08-18T11:57:42;97584.44;;;31.77;45.28
49973;BME280;35865;49.798;10.968;2022-08-18T12:00:52;97572.31;;;31.71;46.42
49973;BME280;35865;49.798;10.968;2022-08-18T12:03:26;97568.56;;;31.50;45.87
49973;BME280;35865;49.798;10.968;2022-08-18T12:05:56;97568.19;;;31.45;46.18
49973;BME280;35865;49.798;10.968;2022-08-18T12:08:29;97562.66;;;31.55;45.68
49973;BME280;35865;49.798;10.968;2022-08-18T12:11:04;97559.63;;;31.35;46.58
49973;BME280;35865;49.798;10.968;2022-08-18T12:13:32;97558.50;;;31.33;46.04
49973;BME280;35865;49.798;10.968;2022-08-18T12:16:13;97561.34;;;31.04;47.14
49973;BME280;35865;49.798;10.968;2022-08-18T12:18:40;97568.31;;;31.27;47.24
49973;BME280;35865;49.798;10.968;2022-08-18T12:21:08;97566.44;;;31.02;46.85
49973;BME280;35865;49.798;10.968;2022-08-18T12:23:38;97559.53;;;30.54;47.56
49973;BME280;35865;49.798;10.968;2022-08-18T12:26:07;97570.81;;;30.81;48.10
49973;BME280;35865;49.798;10.968;2022-08-18T12:28:34;97571.88;;;31.13;47.91
49973;BME280;35865;49.798;10.968;2022-08-18T12:31:01;97562.63;;;30.60;47.41
49973;BME280;35865;49.798;10.968;2022-08-18T12:33:27;97566.97;;;30.64;48.39
49973;BME280;35865;49.798;10.968;2022-08-18T12:35:54;97568.09;;;30.60;48.40
49973;BME280;35865;49.798;10.968;2022-08-18T12:38:20;97573.59;;;30.49;48.44
49973;BME280;35865;49.798;10.968;2022-08-18T12:40:47;97572.06;;;30.30;48.80
49973;BME280;35865;49.798;10.968;2022-08-18T12:43:15;97579.06;;;30.60;49.34
49973;BME280;35865;49.798;10.968;2022-08-18T12:45:41;97570.44;;;30.72;48.18
49973;BME280;35865;49.798;10.968;2022-08-18T12:48:08;97563.59;;;31.20;48.40
49973;BME280;35865;49.798;10.968;2022-08-18T12:50:35;97554.91;;;31.39;47.09
49973;BME280;35865;49.798;10.968;2022-08-18T12:53:02;97550.63;;;31.35;47.06
49973;BME280;35865;49.798;10.968;2022-08-18T12:55:33;97556.44;;;31.48;47.59
49973;BME280;35865;49.798;10.968;2022-08-18T12:57:59;97546.72;;;31.36;46.83
49973;BME280;35865;49.798;10.968;2022-08-18T13:00:29;97544.47;;;31.09;47.78
49973;BME280;35865;49.798;10.968;2022-08-18T13:02:56;97542.94;;;31.08;48.57
49973;BME280;35865;49.798;10.968;2022-08-18T13:05:23;97534.19;;;31.35;48.00
49973;BME280;35865;49.798;10.968;2022-08-18T13:07:50;97545.03;;;31.53;47.19
49973;BME280;35865;49.798;10.968;2022-08-18T13:10:16;97537.22;;;31.55;47.54
49973;BME280;35865;49.798;10.968;2022-08-18T13:12:43;97519.06;;;31.72;47.02
49973;BME280;35865;49.798;10.968;2022-08-18T13:15:09;97518.25;;;31.75;46.86
49973;BME280;35865;49.798;10.968;2022-08-18T13:17:38;97516.88;;;31.52;47.25
49973;BME280;35865;49.798;10.968;2022-08-18T13:20:07;97508.88;;;31.16;47.78
49973;BME280;35865;49.798;10.968;2022-08-18T13:22:34;97513.91;;;31.29;47.87
49973;BME280;35865;49.798;10.968;2022-08-18T13:25:02;97506.00;;;31.38;47.61
49973;BME280;35865;49.798;10.968;2022-08-18T13:27:31;97509.94;;;31.37;48.06